sensor_id;sensor_type;location;lat;lon;timestamp;P1;durP1;ratioP1;P2;durP2;ratioP2
13269;SDS011;6703;51.994;7.570;2023-07-29T00:00:58;9.60;;;4.43;;
13269;SDS011;6703;51.994;7.570;2023-07-29T00:03:27;9.30;;;4.30;;
13269;SDS011;6703;51.994;7.570;2023-07-29T00:05:56;8.75;;;4.53;;
13269;SDS011;6703;51.994;7.570;2023-07-29T00:08:24;9.40;;;5.03;;
13269;SDS011;6703;51.994;7.570;2023-07-29T00:10:54;8.07;;;4.85;;
13269;SDS011;6703;51.994;7.570;2023-07-29T00:13:22;10.30;;;4.72;;
13269;SDS011;6703;51.994;7.570;2023-07-29T00:15:49;9.60;;;4.38;;
13269;SDS011;6703;51.994;7.570;2023-07-29T00:18:17;9.50;;;4.45;;
13269;SDS011;6703;51.994;7.570;2023-07-29T00:20:45;5.85;;;4.43;;
13269;SDS011;6703;51.994;7.570;2023-07-29T00:23:12;10.07;;;4.22;;
13269;SDS011;6703;51.994;7.570;2023-07-29T00:25:40;8.80;;;4.30;;
13269;SDS011;6703;51.994;7.570;2023-07-29T00:28:09;8.93;;;4.47;;
13269;SDS011;6703;51.994;7.570;2023-07-29T00:30:38;6.72;;;4.28;;
13269;SDS011;6703;51.994;7.570;2023-07-29T00:33:05;12.45;;;4.20;;
13269;SDS011;6703;51.994;7.570;2023-07-29T00:35:34;6.70;;;3.90;;
13269;SDS011;6703;51.994;7.570;2023-07-29T00:38:02;6.68;;;4.10;;
13269;SDS011;6703;51.994;7.570;2023-07-29T00:40:30;8.57;;;3.80;;
13269;SDS011;6703;51.994;7.570;2023-07-29T00:42:58;7.18;;;3.85;;
13269;SDS011;6703;51.994;7.570;2023-07-29T00:45:27;7.25;;;4.03;;
13269;SDS011;6703;51.994;7.570;2023-07-29T00:47:56;9.95;;;4.40;;
13269;SDS011;6703;51.994;7.570;2023-07-29T00:50:24;7.85;;;4.25;;
13269;SDS011;6703;51.994;7.570;2023-07-29T00:52:54;9.25;;;4.22;;
13269;SDS011;6703;51.994;7.570;2023-07-29T00:55:21;11.40;;;4.30;;
13269;SDS011;6703;51.994;7.570;2023-07-29T00:57:49;7.40;;;4.53;;
13269;SDS011;6703;51.994;7.570;2023-07-29T01:00:19;8.43;;;4.38;;
13269;SDS011;6703;51.994;7.570;2023-07-29T01:02:49;7.00;;;4.47;;
13269;SDS011;6703;51.994;7.570;2023-07-29T01:05:18;10.73;;;4.90;;
13269;SDS011;6703;51.994;7.570;2023-07-29T01:07:47;8.90;;;4.60;;
13269;SDS011;6703;51.994;7.570;2023-07-29T01:10:19;7.60;;;4.50;;
13269;SDS011;6703;51.994;7.570;2023-07-29T01:12:51;10.43;;;4.90;;
13269;SDS011;6703;51.994;7.570;2023-07-29T01:15:28;9.10;;;5.00;;
13269;SDS011;6703;51.994;7.570;2023-07-29T01:18:04;8.80;;;5.00;;
13269;SDS011;6703;51.994;7.570;2023-07-29T01:20:34;9.75;;;5.07;;
13269;SDS011;6703;51.994;7.570;2023-07-29T01:23:04;10.50;;;5.63;;
13269;SDS011;6703;51.994;7.570;2023-07-29T01:25:33;13.63;;;5.97;;
13269;SDS011;6703;51.994;7.570;2023-07-29T01:28:00;9.53;;;5.47;;
13269;SDS011;6703;51.994;7.570;2023-07-29T01:30:29;12.10;;;6.47;;
13269;SDS011;6703;51.994;7.570;2023-07-29T01:32:59;12.55;;;6.90;;
13269;SDS011;6703;51.994;7.570;2023-07-29T01:35:31;19.15;;;7.88;;
13269;SDS011;6703;51.994;7.570;2023-07-29T01:38:01;16.13;;;8.02;;
13269;SDS011;6703;51.994;7.570;2023-07-29T01:40:33;18.02;;;7.70;;
13269;SDS011;6703;51.994;7.570;2023-07-29T01:43:01;16.92;;;8.50;;
13269;SDS011;6703;51.994;7.570;2023-07-29T01:45:29;17.88;;;7.97;;
13269;SDS011;6703;51.994;7.570;2023-07-29T01:48:01;17.23;;;9.05;;
13269;SDS011;6703;51.994;7.570;2023-07-29T01:50:29;16.98;;;8.80;;
13269;SDS011;6703;51.994;7.570;2023-07-29T01:52:58;14.45;;;7.95;;
13269;SDS011;6703;51.994;7.570;2023-07-29T01:55:26;16.35;;;7.90;;
13269;SDS011;6703;51.994;7.570;2023-07-29T01:57:55;10.95;;;7.10;;
13269;SDS011;6703;51.994;7.570;2023-07-29T02:00:24;13.38;;;7.18;;
13269;SDS011;6703;51.994;7.570;2023-07-29T02:02:52;12.53;;;7.10;;
13269;SDS011;6703;51.994;7.570;2023-07-29T02:05:20;14.43;;;6.45;;
13269;SDS011;6703;51.994;7.570;2023-07-29T02:07:47;10.43;;;6.32;;
13269;SDS011;6703;51.994;7.570;2023-07-29T02:10:15;12.18;;;6.60;;
13269;SDS011;6703;51.994;7.570;2023-07-29T02:12:43;11.77;;;6.57;;
13269;SDS011;6703;51.994;7.570;2023-07-29T02:15:12;12.73;;;6.13;;
13269;SDS011;6703;51.994;7.570;2023-07-29T02:17:40;10.13;;;6.32;;
13269;SDS011;6703;51.994;7.570;2023-07-29T02:20:08;12.83;;;6.40;;
13269;SDS011;6703;51.994;7.570;2023-07-29T02:22:37;10.43;;;6.05;;
13269;SDS011;6703;51.994;7.570;2023-07-29T02:25:05;12.23;;;6.30;;
13269;SDS011;6703;51.994;7.570;2023-07-29T02:27:34;14.73;;;6.55;;
13269;SDS011;6703;51.994;7.570;2023-07-29T02:30:01;9.52;;;6.00;;
13269;SDS011;6703;51.994;7.570;2023-07-29T02:32:31;10.35;;;6.07;;
13269;SDS011;6703;51.994;7.570;2023-07-29T02:34:58;12.93;;;6.15;;
13269;SDS011;6703;51.994;7.570;2023-07-29T02:37:26;14.35;;;5.95;;
13269;SDS011;6703;51.994;7.570;2023-07-29T02:39:54;10.65;;;6.30;;
13269;SDS011;6703;51.994;7.570;2023-07-29T02:42:22;13.02;;;6.28;;
13269;SDS011;6703;51.994;7.570;2023-07-29T02:44:49;15.27;;;6.90;;
13269;SDS011;6703;51.994;7.570;2023-07-29T02:47:17;15.68;;;6.53;;
13269;SDS011;6703;51.994;7.570;2023-07-29T02:49:47;14.33;;;6.50;;
13269;SDS011;6703;51.994;7.570;2023-07-29T02:52:14;11.87;;;6.60;;
13269;SDS011;6703;51.994;7.570;2023-07-29T02:54:42;14.80;;;6.95;;
13269;SDS011;6703;51.994;7.570;2023-07-29T02:57:10;12.50;;;7.43;;
13269;SDS011;6703;51.994;7.570;2023-07-29T02:59:37;11.47;;;6.50;;
13269;SDS011;6703;51.994;7.570;2023-07-29T03:02:05;11.20;;;6.25;;
13269;SDS011;6703;51.994;7.570;2023-07-29T03:07:19;13.52;;;6.53;;
13269;SDS011;6703;51.994;7.570;2023-07-29T03:09:48;9.18;;;5.97;;
13269;SDS011;6703;51.994;7.570;2023-07-29T03:12:15;13.55;;;6.13;;
13269;SDS011;6703;51.994;7.570;2023-07-29T03:14:44;12.30;;;5.50;;
13269;SDS011;6703;51.994;7.570;2023-07-29T03:17:14;12.50;;;5.97;;
13269;SDS011;6703;51.994;7.570;2023-07-29T03:19:42;7.37;;;5.03;;
13269;SDS011;6703;51.994;7.570;2023-07-29T03:22:10;11.63;;;5.82;;
13269;SDS011;6703;51.994;7.570;2023-07-29T03:24:39;11.70;;;6.50;;
13269;SDS011;6703;51.994;7.570;2023-07-29T03:27:08;9.68;;;5.88;;
13269;SDS011;6703;51.994;7.570;2023-07-29T03:29:37;9.43;;;6.10;;
13269;SDS011;6703;51.994;7.570;2023-07-29T03:32:04;11.35;;;6.13;;
13269;SDS011;6703;51.994;7.570;2023-07-29T03:34:33;11.48;;;6.72;;
13269;SDS011;6703;51.994;7.570;2023-07-29T03:37:01;15.23;;;6.30;;
13269;SDS011;6703;51.994;7.570;2023-07-29T03:39:28;11.77;;;6.32;;
13269;SDS011;6703;51.994;7.570;2023-07-29T03:41:58;12.93;;;6.10;;
13269;SDS011;6703;51.994;7.570;2023-07-29T03:44:25;16.58;;;6.50;;
13269;SDS011;6703;51.994;7.570;2023-07-29T03:46:53;11.80;;;6.50;;
13269;SDS011;6703;51.994;7.570;2023-07-29T03:49:21;12.38;;;6.60;;
13269;SDS011;6703;51.994;7.570;2023-07-29T03:51:49;12.90;;;6.73;;
13269;SDS011;6703;51.994;7.570;2023-07-29T03:54:16;11.65;;;6.40;;
13269;SDS011;6703;51.994;7.570;2023-07-29T03:56:44;12.20;;;6.80;;
13269;SDS011;6703;51.994;7.570;2023-07-29T03:59:13;11.75;;;6.57;;
13269;SDS011;6703;51.994;7.570;2023-07-29T04:01:41;11.23;;;6.03;;
13269;SDS011;6703;51.994;7.570;2023-07-29T04:04:09;10.10;;;6.18;;
13269;SDS011;6703;51.994;7.570;2023-07-29T04:06:36;13.95;;;6.40;;
13269;SDS011;6703;51.994;7.570;2023-07-29T04:09:04;13.98;;;6.55;;
13269;SDS011;6703;51.994;7.570;2023-07-29T04:11:32;12.05;;;6.13;;
13269;SDS011;6703;51.994;7.570;2023-07-29T04:14:00;11.63;;;5.90;;
13269;SDS011;6703;51.994;7.570;2023-07-29T04:16:29;11.07;;;5.93;;
13269;SDS011;6703;51.994;7.570;2023-07-29T04:18:57;11.88;;;7.15;;
13269;SDS011;6703;51.994;7.570;2023-07-29T04:21:24;12.63;;;6.43;;
13269;SDS011;6703;51.994;7.570;2023-07-29T04:23:52;10.95;;;5.95;;
13269;SDS011;6703;51.994;7.570;2023-07-29T04:26:20;16.93;;;6.17;;
13269;SDS011;6703;51.994;7.570;2023-07-29T04:28:48;14.07;;;6.63;;
13269;SDS011;6703;51.994;7.570;2023-07-29T04:31:16;8.80;;;5.93;;
13269;SDS011;6703;51.994;7.570;2023-07-29T04:33:45;9.10;;;6.38;;
13269;SDS011;6703;51.994;7.570;2023-07-29T04:36:13;12.23;;;7.07;;
13269;SDS011;6703;51.994;7.570;2023-07-29T04:38:40;14.32;;;7.32;;
13269;SDS011;6703;51.994;7.570;2023-07-29T04:41:08;10.82;;;6.85;;
13269;SDS011;6703;51.994;7.570;2023-07-29T04:43:37;13.70;;;6.85;;
13269;SDS011;6703;51.994;7.570;2023-07-29T04:46:06;13.52;;;6.80;;
13269;SDS011;6703;51.994;7.570;2023-07-29T04:48:34;11.27;;;6.97;;
13269;SDS011;6703;51.994;7.570;2023-07-29T04:51:03;12.25;;;6.93;;
13269;SDS011;6703;51.994;7.570;2023-07-29T04:53:31;14.75;;;6.70;;
13269;SDS011;6703;51.994;7.570;2023-07-29T04:56:01;12.00;;;7.00;;
13269;SDS011;6703;51.994;7.570;2023-07-29T04:58:29;15.77;;;6.80;;
13269;SDS011;6703;51.994;7.570;2023-07-29T05:01:11;16.35;;;6.75;;
13269;SDS011;6703;51.994;7.570;2023-07-29T05:03:39;11.50;;;6.40;;
13269;SDS011;6703;51.994;7.570;2023-07-29T05:06:08;10.35;;;6.80;;
13269;SDS011;6703;51.994;7.570;2023-07-29T05:08:36;9.90;;;6.03;;
13269;SDS011;6703;51.994;7.570;2023-07-29T05:11:03;13.70;;;6.47;;
13269;SDS011;6703;51.994;7.570;2023-07-29T05:13:31;13.05;;;5.93;;
13269;SDS011;6703;51.994;7.570;2023-07-29T05:15:59;11.70;;;6.18;;
13269;SDS011;6703;51.994;7.570;2023-07-29T05:18:26;10.98;;;6.00;;
13269;SDS011;6703;51.994;7.570;2023-07-29T05:20:54;9.38;;;5.72;;
13269;SDS011;6703;51.994;7.570;2023-07-29T05:23:23;9.32;;;5.85;;
13269;SDS011;6703;51.994;7.570;2023-07-29T05:25:51;9.95;;;6.32;;
13269;SDS011;6703;51.994;7.570;2023-07-29T05:28:19;9.57;;;6.15;;
13269;SDS011;6703;51.994;7.570;2023-07-29T05:30:46;10.30;;;5.68;;
13269;SDS011;6703;51.994;7.570;2023-07-29T05:33:14;10.82;;;5.82;;
13269;SDS011;6703;51.994;7.570;2023-07-29T05:35:42;12.38;;;6.10;;
13269;SDS011;6703;51.994;7.570;2023-07-29T05:38:10;14.80;;;5.93;;
13269;SDS011;6703;51.994;7.570;2023-07-29T05:40:39;12.27;;;6.47;;
13269;SDS011;6703;51.994;7.570;2023-07-29T05:43:07;10.23;;;6.85;;
13269;SDS011;6703;51.994;7.570;2023-07-29T05:45:35;14.43;;;7.30;;
13269;SDS011;6703;51.994;7.570;2023-07-29T05:48:03;12.93;;;7.78;;
13269;SDS011;6703;51.994;7.570;2023-07-29T05:50:31;13.95;;;8.68;;
13269;SDS011;6703;51.994;7.570;2023-07-29T05:52:59;12.13;;;8.38;;
13269;SDS011;6703;51.994;7.570;2023-07-29T05:55:46;16.00;;;8.55;;
13269;SDS011;6703;51.994;7.570;2023-07-29T05:58:14;13.50;;;8.55;;
13269;SDS011;6703;51.994;7.570;2023-07-29T06:00:42;11.57;;;7.90;;
13269;SDS011;6703;51.994;7.570;2023-07-29T06:03:09;12.73;;;8.05;;
13269;SDS011;6703;51.994;7.570;2023-07-29T06:05:38;15.80;;;7.70;;
13269;SDS011;6703;51.994;7.570;2023-07-29T06:08:06;13.57;;;7.13;;
13269;SDS011;6703;51.994;7.570;2023-07-29T06:10:34;12.15;;;7.05;;
13269;SDS011;6703;51.994;7.570;2023-07-29T06:13:03;11.45;;;7.20;;
13269;SDS011;6703;51.994;7.570;2023-07-29T06:15:32;14.52;;;7.18;;
13269;SDS011;6703;51.994;7.570;2023-07-29T06:18:00;10.27;;;6.43;;
13269;SDS011;6703;51.994;7.570;2023-07-29T06:20:28;8.30;;;6.18;;
13269;SDS011;6703;51.994;7.570;2023-07-29T06:22:56;9.70;;;6.82;;
13269;SDS011;6703;51.994;7.570;2023-07-29T06:25:24;13.57;;;7.40;;
13269;SDS011;6703;51.994;7.570;2023-07-29T06:27:51;11.93;;;7.07;;
13269;SDS011;6703;51.994;7.570;2023-07-29T06:30:20;12.87;;;7.90;;
13269;SDS011;6703;51.994;7.570;2023-07-29T06:32:48;10.52;;;7.93;;
13269;SDS011;6703;51.994;7.570;2023-07-29T06:35:16;11.73;;;8.32;;
13269;SDS011;6703;51.994;7.570;2023-07-29T06:37:44;11.88;;;7.95;;
13269;SDS011;6703;51.994;7.570;2023-07-29T06:40:12;10.40;;;7.57;;
13269;SDS011;6703;51.994;7.570;2023-07-29T06:42:39;7.95;;;4.57;;
13269;SDS011;6703;51.994;7.570;2023-07-29T06:45:08;6.97;;;3.53;;
13269;SDS011;6703;51.994;7.570;2023-07-29T06:47:38;4.43;;;2.90;;
13269;SDS011;6703;51.994;7.570;2023-07-29T06:50:06;4.05;;;1.67;;
13269;SDS011;6703;51.994;7.570;2023-07-29T06:52:34;2.28;;;1.20;;
13269;SDS011;6703;51.994;7.570;2023-07-29T06:55:03;1.20;;;0.95;;
13269;SDS011;6703;51.994;7.570;2023-07-29T06:57:31;2.83;;;1.08;;
13269;SDS011;6703;51.994;7.570;2023-07-29T06:59:59;1.63;;;1.05;;
13269;SDS011;6703;51.994;7.570;2023-07-29T07:02:27;4.05;;;1.02;;
13269;SDS011;6703;51.994;7.570;2023-07-29T07:04:56;1.42;;;1.13;;
13269;SDS011;6703;51.994;7.570;2023-07-29T07:07:24;2.50;;;1.15;;
13269;SDS011;6703;51.994;7.570;2023-07-29T07:09:52;1.92;;;1.15;;
13269;SDS011;6703;51.994;7.570;2023-07-29T07:12:19;3.20;;;1.30;;
13269;SDS011;6703;51.994;7.570;2023-07-29T07:14:47;2.72;;;1.30;;
13269;SDS011;6703;51.994;7.570;2023-07-29T07:17:15;2.78;;;1.40;;
13269;SDS011;6703;51.994;7.570;2023-07-29T07:19:43;2.30;;;1.40;;
13269;SDS011;6703;51.994;7.570;2023-07-29T07:22:12;2.50;;;1.27;;
13269;SDS011;6703;51.994;7.570;2023-07-29T07:24:40;3.53;;;1.80;;
13269;SDS011;6703;51.994;7.570;2023-07-29T07:27:07;3.03;;;1.30;;
13269;SDS011;6703;51.994;7.570;2023-07-29T07:29:35;3.83;;;1.30;;
13269;SDS011;6703;51.994;7.570;2023-07-29T07:32:03;4.43;;;1.33;;
13269;SDS011;6703;51.994;7.570;2023-07-29T07:34:32;2.05;;;1.42;;
13269;SDS011;6703;51.994;7.570;2023-07-29T07:37:00;2.25;;;1.15;;
13269;SDS011;6703;51.994;7.570;2023-07-29T07:39:31;2.47;;;1.27;;
13269;SDS011;6703;51.994;7.570;2023-07-29T07:41:59;3.70;;;1.20;;
13269;SDS011;6703;51.994;7.570;2023-07-29T07:44:27;1.50;;;1.15;;
13269;SDS011;6703;51.994;7.570;2023-07-29T07:46:55;2.17;;;1.20;;
13269;SDS011;6703;51.994;7.570;2023-07-29T07:49:22;2.67;;;1.10;;
13269;SDS011;6703;51.994;7.570;2023-07-29T07:51:50;1.85;;;0.98;;
13269;SDS011;6703;51.994;7.570;2023-07-29T07:54:18;2.42;;;1.20;;
13269;SDS011;6703;51.994;7.570;2023-07-29T07:56:47;2.50;;;1.50;;
13269;SDS011;6703;51.994;7.570;2023-07-29T07:59:15;1.48;;;1.10;;
13269;SDS011;6703;51.994;7.570;2023-07-29T08:01:43;2.58;;;1.38;;
13269;SDS011;6703;51.994;7.570;2023-07-29T08:04:11;1.52;;;1.20;;
13269;SDS011;6703;51.994;7.570;2023-07-29T08:06:39;3.67;;;1.20;;
13269;SDS011;6703;51.994;7.570;2023-07-29T08:09:07;3.95;;;1.30;;
13269;SDS011;6703;51.994;7.570;2023-07-29T08:11:35;3.90;;;1.30;;
13269;SDS011;6703;51.994;7.570;2023-07-29T08:14:04;4.30;;;1.40;;
13269;SDS011;6703;51.994;7.570;2023-07-29T08:16:32;2.60;;;1.50;;
13269;SDS011;6703;51.994;7.570;2023-07-29T08:19:00;2.28;;;1.30;;
13269;SDS011;6703;51.994;7.570;2023-07-29T08:21:28;2.65;;;1.60;;
13269;SDS011;6703;51.994;7.570;2023-07-29T08:23:55;2.30;;;1.10;;
13269;SDS011;6703;51.994;7.570;2023-07-29T08:26:23;1.95;;;1.27;;
13269;SDS011;6703;51.994;7.570;2023-07-29T08:28:51;4.13;;;1.40;;
13269;SDS011;6703;51.994;7.570;2023-07-29T08:31:22;2.33;;;1.17;;
13269;SDS011;6703;51.994;7.570;2023-07-29T08:33:50;3.63;;;1.13;;
13269;SDS011;6703;51.994;7.570;2023-07-29T08:36:17;1.50;;;0.90;;
13269;SDS011;6703;51.994;7.570;2023-07-29T08:38:45;2.67;;;1.30;;
13269;SDS011;6703;51.994;7.570;2023-07-29T08:41:13;2.15;;;1.20;;
13269;SDS011;6703;51.994;7.570;2023-07-29T08:43:43;2.28;;;1.10;;
13269;SDS011;6703;51.994;7.570;2023-07-29T08:46:12;2.58;;;1.25;;
13269;SDS011;6703;51.994;7.570;2023-07-29T08:48:43;1.50;;;1.10;;
13269;SDS011;6703;51.994;7.570;2023-07-29T08:51:11;2.35;;;0.90;;
13269;SDS011;6703;51.994;7.570;2023-07-29T08:53:39;3.08;;;1.17;;
13269;SDS011;6703;51.994;7.570;2023-07-29T08:56:07;1.50;;;0.90;;
13269;SDS011;6703;51.994;7.570;2023-07-29T08:58:35;1.10;;;0.93;;
13269;SDS011;6703;51.994;7.570;2023-07-29T09:01:03;1.23;;;0.85;;
13269;SDS011;6703;51.994;7.570;2023-07-29T09:03:31;2.58;;;0.90;;
13269;SDS011;6703;51.994;7.570;2023-07-29T09:06:01;4.90;;;1.17;;
13269;SDS011;6703;51.994;7.570;2023-07-29T09:08:29;1.50;;;0.70;;
13269;SDS011;6703;51.994;7.570;2023-07-29T09:10:57;0.93;;;0.60;;
13269;SDS011;6703;51.994;7.570;2023-07-29T09:13:25;1.55;;;0.90;;
13269;SDS011;6703;51.994;7.570;2023-07-29T09:15:54;1.25;;;0.80;;
13269;SDS011;6703;51.994;7.570;2023-07-29T09:18:22;4.35;;;1.23;;
13269;SDS011;6703;51.994;7.570;2023-07-29T09:20:50;1.92;;;0.80;;
13269;SDS011;6703;51.994;7.570;2023-07-29T09:23:19;1.48;;;0.75;;
13269;SDS011;6703;51.994;7.570;2023-07-29T09:25:47;1.30;;;0.90;;
13269;SDS011;6703;51.994;7.570;2023-07-29T09:28:15;1.50;;;0.80;;
13269;SDS011;6703;51.994;7.570;2023-07-29T09:30:44;2.22;;;0.80;;
13269;SDS011;6703;51.994;7.570;2023-07-29T09:33:13;1.60;;;0.80;;
13269;SDS011;6703;51.994;7.570;2023-07-29T09:35:41;1.30;;;0.80;;
13269;SDS011;6703;51.994;7.570;2023-07-29T09:38:13;1.35;;;0.75;;
13269;SDS011;6703;51.994;7.570;2023-07-29T09:40:43;1.88;;;0.73;;
13269;SDS011;6703;51.994;7.570;2023-07-29T09:43:12;1.52;;;0.70;;
13269;SDS011;6703;51.994;7.570;2023-07-29T09:45:40;1.08;;;0.75;;
13269;SDS011;6703;51.994;7.570;2023-07-29T09:48:08;1.60;;;0.70;;
13269;SDS011;6703;51.994;7.570;2023-07-29T09:50:37;0.88;;;0.60;;
13269;SDS011;6703;51.994;7.570;2023-07-29T09:53:05;1.20;;;0.57;;
13269;SDS011;6703;51.994;7.570;2023-07-29T09:55:34;3.00;;;0.60;;
13269;SDS011;6703;51.994;7.570;2023-07-29T09:58:03;1.20;;;0.60;;
13269;SDS011;6703;51.994;7.570;2023-07-29T10:00:34;0.95;;;0.57;;
13269;SDS011;6703;51.994;7.570;2023-07-29T10:03:04;2.75;;;0.60;;
13269;SDS011;6703;51.994;7.570;2023-07-29T10:05:33;1.80;;;0.60;;
13269;SDS011;6703;51.994;7.570;2023-07-29T10:08:01;0.70;;;0.50;;
13269;SDS011;6703;51.994;7.570;2023-07-29T10:10:30;0.63;;;0.50;;
13269;SDS011;6703;51.994;7.570;2023-07-29T10:12:58;0.65;;;0.50;;
13269;SDS011;6703;51.994;7.570;2023-07-29T10:15:41;2.00;;;0.67;;
13269;SDS011;6703;51.994;7.570;2023-07-29T10:18:09;1.25;;;0.43;;
13269;SDS011;6703;51.994;7.570;2023-07-29T10:20:37;2.50;;;0.60;;
13269;SDS011;6703;51.994;7.570;2023-07-29T10:23:06;1.58;;;0.70;;
13269;SDS011;6703;51.994;7.570;2023-07-29T10:25:37;1.13;;;0.50;;
13269;SDS011;6703;51.994;7.570;2023-07-29T10:28:06;2.60;;;0.82;;
13269;SDS011;6703;51.994;7.570;2023-07-29T10:30:35;1.17;;;0.47;;
13269;SDS011;6703;51.994;7.570;2023-07-29T10:33:04;1.20;;;0.60;;
13269;SDS011;6703;51.994;7.570;2023-07-29T10:35:33;0.88;;;0.55;;
13269;SDS011;6703;51.994;7.570;2023-07-29T10:38:01;0.88;;;0.50;;
13269;SDS011;6703;51.994;7.570;2023-07-29T10:40:43;1.35;;;0.85;;
13269;SDS011;6703;51.994;7.570;2023-07-29T10:43:12;0.63;;;0.50;;
13269;SDS011;6703;51.994;7.570;2023-07-29T10:45:41;2.42;;;0.57;;
13269;SDS011;6703;51.994;7.570;2023-07-29T10:48:11;0.88;;;0.40;;
13269;SDS011;6703;51.994;7.570;2023-07-29T10:50:39;1.90;;;0.52;;
13269;SDS011;6703;51.994;7.570;2023-07-29T10:53:07;1.00;;;0.80;;
13269;SDS011;6703;51.994;7.570;2023-07-29T10:55:35;1.30;;;0.70;;
13269;SDS011;6703;51.994;7.570;2023-07-29T10:58:04;1.30;;;0.50;;
13269;SDS011;6703;51.994;7.570;2023-07-29T11:00:33;1.45;;;0.65;;
13269;SDS011;6703;51.994;7.570;2023-07-29T11:03:02;3.83;;;0.82;;
13269;SDS011;6703;51.994;7.570;2023-07-29T11:05:45;1.25;;;0.68;;
13269;SDS011;6703;51.994;7.570;2023-07-29T11:08:21;1.80;;;0.77;;
13269;SDS011;6703;51.994;7.570;2023-07-29T11:11:03;0.50;;;0.50;;
13269;SDS011;6703;51.994;7.570;2023-07-29T11:13:32;2.80;;;0.88;;
13269;SDS011;6703;51.994;7.570;2023-07-29T11:16:01;2.30;;;0.90;;
13269;SDS011;6703;51.994;7.570;2023-07-29T11:18:30;2.97;;;0.90;;
13269;SDS011;6703;51.994;7.570;2023-07-29T11:21:01;1.70;;;0.83;;
13269;SDS011;6703;51.994;7.570;2023-07-29T11:23:30;1.23;;;0.60;;
13269;SDS011;6703;51.994;7.570;2023-07-29T11:25:59;2.13;;;0.60;;
13269;SDS011;6703;51.994;7.570;2023-07-29T11:28:27;1.10;;;0.90;;
13269;SDS011;6703;51.994;7.570;2023-07-29T11:30:55;1.17;;;0.80;;
13269;SDS011;6703;51.994;7.570;2023-07-29T11:33:24;2.80;;;0.75;;
13269;SDS011;6703;51.994;7.570;2023-07-29T11:35:54;1.70;;;0.73;;
13269;SDS011;6703;51.994;7.570;2023-07-29T11:38:24;1.00;;;0.70;;
13269;SDS011;6703;51.994;7.570;2023-07-29T11:40:55;1.23;;;0.80;;
13269;SDS011;6703;51.994;7.570;2023-07-29T11:43:23;1.30;;;0.80;;
13269;SDS011;6703;51.994;7.570;2023-07-29T11:45:51;1.10;;;0.80;;
13269;SDS011;6703;51.994;7.570;2023-07-29T11:48:25;2.08;;;0.80;;
13269;SDS011;6703;51.994;7.570;2023-07-29T11:50:54;1.42;;;0.77;;
13269;SDS011;6703;51.994;7.570;2023-07-29T11:53:23;0.85;;;0.70;;
13269;SDS011;6703;51.994;7.570;2023-07-29T11:55:53;2.85;;;0.70;;
13269;SDS011;6703;51.994;7.570;2023-07-29T11:58:21;1.20;;;0.70;;
13269;SDS011;6703;51.994;7.570;2023-07-29T12:00:49;2.20;;;0.70;;
13269;SDS011;6703;51.994;7.570;2023-07-29T12:03:18;2.05;;;0.90;;
13269;SDS011;6703;51.994;7.570;2023-07-29T12:05:47;5.57;;;0.80;;
13269;SDS011;6703;51.994;7.570;2023-07-29T12:08:15;0.65;;;0.60;;
13269;SDS011;6703;51.994;7.570;2023-07-29T12:10:44;2.70;;;1.60;;
13269;SDS011;6703;51.994;7.570;2023-07-29T12:13:12;1.15;;;0.77;;
13269;SDS011;6703;51.994;7.570;2023-07-29T12:15:40;1.80;;;0.88;;
13269;SDS011;6703;51.994;7.570;2023-07-29T12:18:08;1.33;;;0.70;;
13269;SDS011;6703;51.994;7.570;2023-07-29T12:20:36;2.10;;;0.90;;
13269;SDS011;6703;51.994;7.570;2023-07-29T12:23:04;1.02;;;0.70;;
13269;SDS011;6703;51.994;7.570;2023-07-29T12:25:32;2.28;;;0.63;;
13269;SDS011;6703;51.994;7.570;2023-07-29T12:30:54;1.50;;;0.80;;
13269;SDS011;6703;51.994;7.570;2023-07-29T12:33:31;3.25;;;0.70;;
13269;SDS011;6703;51.994;7.570;2023-07-29T12:35:59;2.20;;;0.70;;
13269;SDS011;6703;51.994;7.570;2023-07-29T12:38:27;1.53;;;0.90;;
13269;SDS011;6703;51.994;7.570;2023-07-29T12:40:55;1.00;;;0.80;;
13269;SDS011;6703;51.994;7.570;2023-07-29T12:43:24;1.38;;;0.80;;
13269;SDS011;6703;51.994;7.570;2023-07-29T12:45:53;2.43;;;0.80;;
13269;SDS011;6703;51.994;7.570;2023-07-29T12:48:21;2.30;;;0.80;;
13269;SDS011;6703;51.994;7.570;2023-07-29T12:50:49;1.30;;;0.70;;
13269;SDS011;6703;51.994;7.570;2023-07-29T12:53:18;0.80;;;0.80;;
13269;SDS011;6703;51.994;7.570;2023-07-29T12:55:45;1.27;;;0.75;;
13269;SDS011;6703;51.994;7.570;2023-07-29T12:58:13;1.27;;;0.70;;
13269;SDS011;6703;51.994;7.570;2023-07-29T13:00:41;1.30;;;0.95;;
13269;SDS011;6703;51.994;7.570;2023-07-29T13:03:10;1.35;;;0.90;;
13269;SDS011;6703;51.994;7.570;2023-07-29T13:05:38;1.63;;;0.70;;
13269;SDS011;6703;51.994;7.570;2023-07-29T13:08:06;1.13;;;0.80;;
13269;SDS011;6703;51.994;7.570;2023-07-29T13:10:34;1.17;;;0.70;;
13269;SDS011;6703;51.994;7.570;2023-07-29T13:13:01;1.88;;;0.80;;
13269;SDS011;6703;51.994;7.570;2023-07-29T13:15:29;2.42;;;0.80;;
13269;SDS011;6703;51.994;7.570;2023-07-29T13:17:57;1.27;;;0.70;;
13269;SDS011;6703;51.994;7.570;2023-07-29T13:20:26;3.65;;;0.80;;
13269;SDS011;6703;51.994;7.570;2023-07-29T13:22:55;0.88;;;0.70;;
13269;SDS011;6703;51.994;7.570;2023-07-29T13:25:23;1.60;;;0.80;;
13269;SDS011;6703;51.994;7.570;2023-07-29T13:27:50;1.95;;;0.80;;
13269;SDS011;6703;51.994;7.570;2023-07-29T13:30:18;1.00;;;0.80;;
13269;SDS011;6703;51.994;7.570;2023-07-29T13:32:46;1.63;;;0.80;;
13269;SDS011;6703;51.994;7.570;2023-07-29T13:35:14;2.45;;;0.85;;
13269;SDS011;6703;51.994;7.570;2023-07-29T13:37:43;1.40;;;0.77;;
13269;SDS011;6703;51.994;7.570;2023-07-29T13:40:23;1.75;;;0.88;;
13269;SDS011;6703;51.994;7.570;2023-07-29T13:42:50;2.40;;;1.00;;
13269;SDS011;6703;51.994;7.570;2023-07-29T13:45:19;1.75;;;0.98;;
13269;SDS011;6703;51.994;7.570;2023-07-29T13:47:47;1.48;;;1.02;;
13269;SDS011;6703;51.994;7.570;2023-07-29T13:50:15;3.65;;;1.20;;
13269;SDS011;6703;51.994;7.570;2023-07-29T13:52:45;2.23;;;1.10;;
13269;SDS011;6703;51.994;7.570;2023-07-29T13:55:13;1.42;;;0.90;;
13269;SDS011;6703;51.994;7.570;2023-07-29T13:57:40;9.30;;;1.52;;
13269;SDS011;6703;51.994;7.570;2023-07-29T14:00:08;5.80;;;1.35;;
13269;SDS011;6703;51.994;7.570;2023-07-29T14:02:37;10.30;;;1.70;;
13269;SDS011;6703;51.994;7.570;2023-07-29T14:05:04;0.00;;;0.00;;
13269;SDS011;6703;51.994;7.570;2023-07-29T14:07:33;0.00;;;0.00;;
13269;SDS011;6703;51.994;7.570;2023-07-29T14:10:03;0.00;;;0.00;;
13269;SDS011;6703;51.994;7.570;2023-07-29T14:12:31;0.00;;;0.00;;
13269;SDS011;6703;51.994;7.570;2023-07-29T14:14:59;0.00;;;0.00;;
13269;SDS011;6703;51.994;7.570;2023-07-29T14:17:27;0.00;;;0.00;;
13269;SDS011;6703;51.994;7.570;2023-07-29T14:19:54;0.20;;;0.20;;
13269;SDS011;6703;51.994;7.570;2023-07-29T14:22:22;0.00;;;0.00;;
13269;SDS011;6703;51.994;7.570;2023-07-29T14:24:50;0.00;;;0.00;;
13269;SDS011;6703;51.994;7.570;2023-07-29T14:27:19;0.00;;;0.00;;
13269;SDS011;6703;51.994;7.570;2023-07-29T14:30:08;0.00;;;0.00;;
13269;SDS011;6703;51.994;7.570;2023-07-29T14:32:36;0.40;;;0.40;;
13269;SDS011;6703;51.994;7.570;2023-07-29T14:35:04;0.00;;;0.00;;
13269;SDS011;6703;51.994;7.570;2023-07-29T14:37:34;0.40;;;0.40;;
13269;SDS011;6703;51.994;7.570;2023-07-29T14:40:02;0.00;;;0.00;;
13269;SDS011;6703;51.994;7.570;2023-07-29T14:42:31;0.00;;;0.00;;
13269;SDS011;6703;51.994;7.570;2023-07-29T14:45:01;0.00;;;0.00;;
13269;SDS011;6703;51.994;7.570;2023-07-29T14:47:29;0.00;;;0.00;;
13269;SDS011;6703;51.994;7.570;2023-07-29T14:50:01;0.50;;;0.40;;
13269;SDS011;6703;51.994;7.570;2023-07-29T14:52:29;0.00;;;0.00;;
13269;SDS011;6703;51.994;7.570;2023-07-29T14:54:57;0.00;;;0.00;;
13269;SDS011;6703;51.994;7.570;2023-07-29T14:57:24;0.00;;;0.00;;
13269;SDS011;6703;51.994;7.570;2023-07-29T14:59:55;0.00;;;0.00;;
13269;SDS011;6703;51.994;7.570;2023-07-29T15:02:23;0.00;;;0.00;;
13269;SDS011;6703;51.994;7.570;2023-07-29T15:04:51;0.00;;;0.00;;
13269;SDS011;6703;51.994;7.570;2023-07-29T15:07:19;0.00;;;0.00;;
13269;SDS011;6703;51.994;7.570;2023-07-29T15:09:47;0.08;;;0.08;;
13269;SDS011;6703;51.994;7.570;2023-07-29T15:12:15;0.00;;;0.00;;